createdAt,value
2023-02-26T00:03:54.293Z,-1.17
2023-02-26T00:07:41.980Z,-1.19
2023-02-26T00:11:29.852Z,-1.21
2023-02-26T00:15:15.055Z,-1.24
2023-02-26T00:18:52.848Z,-1.27
2023-02-26T00:22:41.568Z,-1.31
2023-02-26T00:26:31.006Z,-1.35
2023-02-26T00:30:21.071Z,-1.38
2023-02-26T00:33:54.533Z,-1.42
2023-02-26T00:37:56.202Z,-1.45
2023-02-26T00:41:44.780Z,-1.47
2023-02-26T00:45:35.710Z,-1.47
2023-02-26T00:49:15.902Z,-1.48
2023-02-26T00:53:02.538Z,-1.46
2023-02-26T00:56:51.148Z,-1.40
2023-02-26T01:00:38.637Z,-1.32
2023-02-26T01:04:10.582Z,-1.27
2023-02-26T01:07:49.005Z,-1.20
2023-02-26T01:11:17.471Z,-1.15
2023-02-26T01:14:47.333Z,-1.11
2023-02-26T01:18:20.657Z,-1.10
2023-02-26T01:22:14.511Z,-1.11
2023-02-26T01:25:49.350Z,-1.14
2023-02-26T01:29:37.186Z,-1.21
2023-02-26T01:33:30.198Z,-1.27
2023-02-26T01:37:28.482Z,-1.34
2023-02-26T01:41:30.255Z,-1.40
2023-02-26T01:45:22.664Z,-1.46
2023-02-26T01:49:16.341Z,-1.50
2023-02-26T01:53:24.487Z,-1.55
2023-02-26T01:57:16.129Z,-1.59
2023-02-26T02:00:53.211Z,-1.63
2023-02-26T02:04:42.222Z,-1.66
2023-02-26T02:08:23.583Z,-1.69
2023-02-26T02:12:25.539Z,-1.72
2023-02-26T02:16:39.172Z,-1.74
2023-02-26T02:21:08.344Z,-1.77
2023-02-26T02:24:54.213Z,-1.78
2023-02-26T02:28:55.616Z,-1.80
2023-02-26T02:32:49.745Z,-1.81
2023-02-26T02:36:35.653Z,-1.81
2023-02-26T02:40:26.964Z,-1.82
2023-02-26T02:44:19.373Z,-1.82
2023-02-26T02:48:13.446Z,-1.83
2023-02-26T02:52:07.761Z,-1.87
2023-02-26T02:55:39.635Z,-1.92
2023-02-26T02:59:17.673Z,-1.95
2023-02-26T03:03:14.968Z,-1.97
2023-02-26T03:06:52.178Z,-1.98
2023-02-26T03:10:39.999Z,-1.98
2023-02-26T03:14:27.854Z,-1.97
2023-02-26T03:18:34.844Z,-1.97
2023-02-26T03:22:18.751Z,-1.97
2023-02-26T03:26:13.192Z,-1.98
2023-02-26T03:30:06.590Z,-1.98
2023-02-26T03:33:45.247Z,-1.99
2023-02-26T03:37:37.488Z,-2.01
2023-02-26T03:41:23.344Z,-2.00
2023-02-26T03:45:03.549Z,-2.01
2023-02-26T03:48:49.439Z,-2.01
2023-02-26T03:52:40.518Z,-2.01
2023-02-26T03:56:38.827Z,-2.00
2023-02-26T04:00:27.829Z,-1.99
2023-02-26T04:04:20.598Z,-2.00
2023-02-26T04:08:08.136Z,-2.00
2023-02-26T04:11:58.295Z,-2.00
2023-02-26T04:15:46.007Z,-2.00
2023-02-26T04:19:33.910Z,-2.00
2023-02-26T04:23:11.144Z,-2.01
2023-02-26T04:26:58.542Z,-2.02
2023-02-26T04:30:46.113Z,-2.03
2023-02-26T04:34:24.398Z,-2.04
2023-02-26T04:38:11.875Z,-2.04
2023-02-26T04:41:47.925Z,-2.04
2023-02-26T04:45:35.416Z,-2.03
2023-02-26T04:49:23.025Z,-2.04
2023-02-26T04:53:10.718Z,-2.04
2023-02-26T04:56:58.159Z,-2.02
2023-02-26T05:00:48.936Z,-1.98
2023-02-26T05:04:38.658Z,-1.92
2023-02-26T05:08:26.454Z,-1.85
2023-02-26T05:12:14.055Z,-1.79
2023-02-26T05:16:01.580Z,-1.75
2023-02-26T05:19:49.343Z,-1.71
2023-02-26T05:23:37.472Z,-1.66
2023-02-26T05:27:25.266Z,-1.62
2023-02-26T05:31:01.643Z,-1.58
2023-02-26T05:34:41.772Z,-1.54
2023-02-26T05:38:18.017Z,-1.50
2023-02-26T05:41:58.784Z,-1.46
2023-02-26T05:45:31.489Z,-1.42
2023-02-26T05:49:10.581Z,-1.40
2023-02-26T05:52:49.516Z,-1.37
2023-02-26T05:56:36.160Z,-1.35
2023-02-26T06:00:11.840Z,-1.33
2023-02-26T06:03:46.906Z,-1.30
2023-02-26T06:07:24.708Z,-1.27
2023-02-26T06:11:06.027Z,-1.24
2023-02-26T06:14:53.406Z,-1.20
2023-02-26T06:18:35.268Z,-1.15
2023-02-26T06:22:22.952Z,-1.10
2023-02-26T06:26:10.541Z,-1.04
2023-02-26T06:29:50.483Z,-0.98
2023-02-26T06:33:21.076Z,-0.88
2023-02-26T06:36:59.557Z,-0.78
2023-02-26T06:40:37.575Z,-0.66
2023-02-26T06:44:25.167Z,-0.56
2023-02-26T06:48:06.719Z,-0.50
2023-02-26T06:51:54.615Z,-0.45
2023-02-26T06:55:31.179Z,-0.40
2023-02-26T06:59:09.381Z,-0.37
2023-02-26T07:02:53.587Z,-0.34
2023-02-26T07:06:27.428Z,-0.29
2023-02-26T07:10:10.061Z,-0.23
2023-02-26T07:13:57.925Z,-0.21
2023-02-26T07:17:44.283Z,-0.19
2023-02-26T07:21:17.151Z,-0.20
2023-02-26T07:25:04.915Z,-0.23
2023-02-26T07:28:41.059Z,-0.26
2023-02-26T07:32:18.210Z,-0.24
2023-02-26T07:36:06.523Z,-0.21
2023-02-26T07:39:54.705Z,-0.13
2023-02-26T07:43:37.070Z,0.01
2023-02-26T07:47:24.582Z,0.19
2023-02-26T07:51:12.294Z,0.42
2023-02-26T07:54:49.051Z,0.67
2023-02-26T07:58:36.635Z,1.05
2023-02-26T08:02:24.767Z,1.38
2023-02-26T08:06:05.026Z,1.55
2023-02-26T08:09:45.625Z,1.59
2023-02-26T08:13:20.801Z,1.54
2023-02-26T08:17:07.104Z,1.33
2023-02-26T08:20:41.548Z,1.12
2023-02-26T08:24:16.377Z,1.07
2023-02-26T08:27:57.927Z,1.03
2023-02-26T08:31:45.788Z,1.10
2023-02-26T08:35:33.263Z,1.12
2023-02-26T08:39:21.049Z,1.07
2023-02-26T08:43:01.480Z,1.07
2023-02-26T08:46:49.369Z,1.06
2023-02-26T08:50:35.585Z,1.06
2023-02-26T08:54:23.508Z,1.04
2023-02-26T08:57:59.523Z,1.07
2023-02-26T09:01:35.973Z,1.09
2023-02-26T09:05:23.033Z,1.10
2023-02-26T09:08:53.685Z,1.15
2023-02-26T09:12:30.227Z,1.17
2023-02-26T09:16:00.925Z,1.13
2023-02-26T09:19:34.364Z,1.13
2023-02-26T09:23:22.284Z,1.20
2023-02-26T09:27:01.282Z,1.26
2023-02-26T09:30:42.545Z,1.42
2023-02-26T09:34:30.089Z,1.57
2023-02-26T09:38:04.063Z,1.76
2023-02-26T09:41:58.663Z,1.93
2023-02-26T09:45:49.868Z,2.19
2023-02-26T09:49:49.272Z,2.42
2023-02-26T09:53:24.014Z,2.53
2023-02-26T09:57:27.234Z,2.56
2023-02-26T10:01:11.648Z,2.57
2023-02-26T10:05:08.873Z,2.49
2023-02-26T10:08:53.089Z,2.45
2023-02-26T10:12:23.322Z,2.40
2023-02-26T10:15:59.386Z,2.63
2023-02-26T10:19:49.185Z,2.87
2023-02-26T10:23:29.696Z,3.04
2023-02-26T10:27:17.386Z,3.17
2023-02-26T10:31:03.715Z,3.18
2023-02-26T10:34:40.332Z,3.04
2023-02-26T10:38:31.602Z,2.93
2023-02-26T10:42:23.337Z,2.92
2023-02-26T10:46:23.313Z,2.91
2023-02-26T10:50:11.754Z,2.86
2023-02-26T10:53:56.103Z,2.65
2023-02-26T10:57:30.119Z,2.39
2023-02-26T11:01:21.415Z,2.15
2023-02-26T11:05:07.238Z,2.02
2023-02-26T11:08:54.566Z,2.02
2023-02-26T11:12:45.465Z,2.05
2023-02-26T11:16:33.961Z,2.16
2023-02-26T11:20:16.662Z,2.19
2023-02-26T11:24:07.257Z,2.20
2023-02-26T11:27:50.018Z,2.40
2023-02-26T11:31:28.464Z,2.86
2023-02-26T11:35:19.268Z,3.44
2023-02-26T11:38:59.517Z,3.67
2023-02-26T11:42:53.868Z,3.56
2023-02-26T11:46:32.030Z,3.26
2023-02-26T11:50:17.922Z,2.97
2023-02-26T11:54:19.997Z,2.77
2023-02-26T11:58:17.939Z,2.74
2023-02-26T12:01:48.588Z,2.78
2023-02-26T12:05:37.153Z,2.83
2023-02-26T12:09:16.520Z,2.85
2023-02-26T12:13:06.315Z,2.90
2023-02-26T12:16:50.119Z,2.96
2023-02-26T12:20:34.073Z,2.96
2023-02-26T12:24:42.660Z,3.02
2023-02-26T12:28:34.123Z,3.04
2023-02-26T12:32:36.537Z,3.03
2023-02-26T12:36:47.985Z,3.08
2023-02-26T12:40:38.161Z,3.11
2023-02-26T12:44:29.594Z,3.14
2023-02-26T12:48:34.530Z,2.95
2023-02-26T12:52:35.682Z,2.73
2023-02-26T12:56:43.169Z,2.62
2023-02-26T13:00:48.384Z,2.67
2023-02-26T13:04:47.819Z,2.71
2023-02-26T13:08:33.566Z,2.73
2023-02-26T13:12:32.988Z,2.82
2023-02-26T13:16:32.786Z,2.98
2023-02-26T13:20:12.360Z,3.17
2023-02-26T13:23:53.605Z,3.31
2023-02-26T13:27:35.620Z,3.36
2023-02-26T13:31:24.091Z,3.27
2023-02-26T13:35:23.021Z,3.06
2023-02-26T13:39:04.881Z,2.95
2023-02-26T13:42:48.439Z,2.91
2023-02-26T13:46:41.568Z,2.83
2023-02-26T13:50:36.028Z,2.77
2023-02-26T13:54:11.857Z,2.71
2023-02-26T13:57:54.218Z,2.75
2023-02-26T14:01:37.096Z,2.89
2023-02-26T14:05:12.421Z,3.09
2023-02-26T14:08:53.812Z,3.36
2023-02-26T14:12:43.471Z,3.55
2023-02-26T14:16:24.818Z,3.60
2023-02-26T14:20:20.912Z,3.44
2023-02-26T14:23:54.161Z,3.26
2023-02-26T14:27:40.448Z,3.12
2023-02-26T14:31:48.313Z,2.98
2023-02-26T14:35:33.551Z,2.90
2023-02-26T14:39:25.466Z,2.88
2023-02-26T14:43:07.191Z,2.83
2023-02-26T14:46:42.291Z,2.80
2023-02-26T14:50:40.879Z,2.81
2023-02-26T14:54:32.518Z,2.85
2023-02-26T14:58:18.679Z,2.83
2023-02-26T15:02:02.355Z,2.78
2023-02-26T15:05:54.229Z,2.78
2023-02-26T15:09:44.495Z,2.75
2023-02-26T15:13:43.542Z,2.67
2023-02-26T15:17:45.922Z,2.62
2023-02-26T15:21:34.141Z,2.56
2023-02-26T15:25:28.949Z,2.53
2023-02-26T15:29:00.917Z,2.47
2023-02-26T15:32:42.976Z,2.44
2023-02-26T15:36:24.767Z,2.40
2023-02-26T15:39:55.173Z,2.35
2023-02-26T15:43:31.143Z,2.28
2023-02-26T15:47:09.455Z,2.21
2023-02-26T15:50:56.793Z,2.14
2023-02-26T15:54:42.693Z,2.09
2023-02-26T15:58:30.055Z,2.03
2023-02-26T16:02:21.585Z,1.96
2023-02-26T16:05:56.399Z,1.93
2023-02-26T16:09:36.337Z,1.89
2023-02-26T16:13:26.127Z,1.86
2023-02-26T16:16:58.892Z,1.83
2023-02-26T16:20:46.493Z,1.79
2023-02-26T16:24:23.285Z,1.74
2023-02-26T16:28:16.353Z,1.68
2023-02-26T16:31:58.812Z,1.62
2023-02-26T16:35:39.677Z,1.57
2023-02-26T16:39:31.609Z,1.50
2023-02-26T16:43:33.467Z,1.44
2023-02-26T16:47:14.198Z,1.37
2023-02-26T16:51:07.940Z,1.32
2023-02-26T16:55:01.823Z,1.28
2023-02-26T16:58:41.480Z,1.22
2023-02-26T17:02:33.016Z,1.16
2023-02-26T17:06:23.703Z,1.12
2023-02-26T17:10:08.998Z,1.08
2023-02-26T17:14:08.835Z,1.03
2023-02-26T17:17:58.621Z,1.00
2023-02-26T17:21:29.065Z,0.98
2023-02-26T17:25:23.318Z,0.94
2023-02-26T17:29:02.777Z,0.90
2023-02-26T17:32:33.763Z,0.85
2023-02-26T17:36:24.004Z,0.80
2023-02-26T17:40:23.999Z,0.74
2023-02-26T17:44:01.990Z,0.67
2023-02-26T17:47:31.966Z,0.60
2023-02-26T17:51:16.001Z,0.53
2023-02-26T17:54:53.149Z,0.43
2023-02-26T17:58:30.580Z,0.35
2023-02-26T18:02:01.311Z,0.27
2023-02-26T18:05:54.652Z,0.18
2023-02-26T18:09:51.116Z,0.10
2023-02-26T18:13:29.753Z,-0.00
2023-02-26T18:17:18.061Z,-0.10
2023-02-26T18:21:01.225Z,-0.18
2023-02-26T18:24:48.628Z,-0.24
2023-02-26T18:28:26.290Z,-0.28
2023-02-26T18:32:15.075Z,-0.30
2023-02-26T18:36:20.755Z,-0.32
2023-02-26T18:39:56.673Z,-0.30
2023-02-26T18:43:34.054Z,-0.27
2023-02-26T18:47:11.981Z,-0.25
2023-02-26T18:50:50.652Z,-0.22
2023-02-26T18:54:35.222Z,-0.19
2023-02-26T18:58:23.560Z,-0.17
2023-02-26T19:02:15.441Z,-0.13
2023-02-26T19:06:05.217Z,-0.09
2023-02-26T19:09:53.668Z,-0.04
2023-02-26T19:13:36.494Z,0.00
2023-02-26T19:17:03.915Z,0.04
2023-02-26T19:20:34.315Z,0.08
2023-02-26T19:24:01.940Z,0.11
2023-02-26T19:27:41.133Z,0.13
2023-02-26T19:31:23.153Z,0.17
2023-02-26T19:35:12.228Z,0.19
2023-02-26T19:38:59.769Z,0.20
2023-02-26T19:42:48.101Z,0.20
2023-02-26T19:46:28.570Z,0.20
2023-02-26T19:50:18.394Z,0.18
2023-02-26T19:53:53.446Z,0.17
2023-02-26T19:57:41.490Z,0.17
2023-02-26T20:01:20.848Z,0.16
2023-02-26T20:05:06.464Z,0.14
2023-02-26T20:08:47.689Z,0.14
2023-02-26T20:12:35.392Z,0.13
2023-02-26T20:16:16.974Z,0.13
2023-02-26T20:19:53.951Z,0.12
2023-02-26T20:23:37.712Z,0.11
2023-02-26T20:27:14.103Z,0.10
2023-02-26T20:30:50.820Z,0.09
2023-02-26T20:34:27.479Z,0.07
2023-02-26T20:38:06.473Z,0.06
2023-02-26T20:41:44.936Z,0.05
2023-02-26T20:45:21.460Z,0.04
2023-02-26T20:49:11.977Z,0.04
2023-02-26T20:52:59.818Z,0.04
2023-02-26T20:56:33.075Z,0.03
2023-02-26T21:00:15.897Z,0.02
2023-02-26T21:04:04.226Z,0.01
2023-02-26T21:07:41.041Z,-0.01
2023-02-26T21:11:36.833Z,-0.02
2023-02-26T21:15:15.860Z,-0.02
2023-02-26T21:18:51.370Z,-0.02
2023-02-26T21:22:25.678Z,-0.01
2023-02-26T21:26:04.000Z,0.01
2023-02-26T21:29:50.638Z,0.02
2023-02-26T21:33:32.821Z,0.02
2023-02-26T21:37:12.823Z,0.00
2023-02-26T21:41:00.695Z,-0.02
2023-02-26T21:44:59.884Z,-0.04
2023-02-26T21:48:51.623Z,-0.05
2023-02-26T21:52:39.349Z,-0.04
2023-02-26T21:56:27.257Z,-0.05
2023-02-26T22:00:17.905Z,-0.05
2023-02-26T22:04:05.809Z,-0.07
2023-02-26T22:07:38.119Z,-0.10
2023-02-26T22:11:05.798Z,-0.13
2023-02-26T22:14:53.964Z,-0.17
2023-02-26T22:18:35.259Z,-0.19
2023-02-26T22:22:11.594Z,-0.22
2023-02-26T22:25:44.022Z,-0.24
2023-02-26T22:29:22.890Z,-0.27
2023-02-26T22:32:59.009Z,-0.27
2023-02-26T22:36:37.511Z,-0.28
2023-02-26T22:40:17.748Z,-0.30
2023-02-26T22:44:05.802Z,-0.31
2023-02-26T22:47:53.567Z,-0.33
2023-02-26T22:51:41.114Z,-0.33
2023-02-26T22:55:28.788Z,-0.36
2023-02-26T22:59:16.457Z,-0.36
2023-02-26T23:03:04.369Z,-0.37
2023-02-26T23:06:51.920Z,-0.38
2023-02-26T23:10:39.488Z,-0.39
2023-02-26T23:14:27.835Z,-0.42
2023-02-26T23:18:15.494Z,-0.47
2023-02-26T23:22:03.105Z,-0.52
2023-02-26T23:25:45.529Z,-0.58
2023-02-26T23:29:33.186Z,-0.63
2023-02-26T23:33:21.401Z,-0.68
2023-02-26T23:37:09.353Z,-0.73
2023-02-26T23:40:58.236Z,-0.81
2023-02-26T23:44:39.108Z,-0.88
2023-02-26T23:48:16.802Z,-0.97
2023-02-26T23:51:53.534Z,-1.05
2023-02-26T23:55:43.170Z,-1.13
2023-02-26T23:59:22.181Z,-1.22
